Time;durP1;ratioP1;P1;durP2;ratioP2;P2;SDS_P1;SDS_P2;PMS_P1;PMS_P2;Temp;Humidity;BMP_temperature;BMP_pressure;BME280_temperature;BME280_humidity;BME280_pressure;Samples;Min_cycle;Max_cycle;Signal;HPM_P1;HPM_P2
2020/12/15 00:02:21;;;;;;;13.27;10.33;;;;;;;4.94;100.00;97737.22;4974782;28;20222;-77
2020/12/15 00:04:47;;;;;;;13.20;9.17;;;;;;;4.95;100.00;97740.69;4973053;28;20208;-77
2020/12/15 00:07:13;;;;;;;13.37;8.90;;;;;;;4.95;100.00;97733.66;4974914;28;20250;-77
2020/12/15 00:09:40;;;;;;;14.67;9.17;;;;;;;4.90;100.00;97734.84;4974626;28;20281;-76
2020/12/15 00:12:06;;;;;;;13.07;9.13;;;;;;;4.89;100.00;97734.00;4974840;28;20216;-76
2020/12/15 00:14:32;;;;;;;14.83;10.13;;;;;;;4.92;100.00;97731.22;4974897;28;20262;-77
2020/12/15 00:16:58;;;;;;;13.77;9.17;;;;;;;4.86;100.00;97749.88;4974965;28;20215;-77
2020/12/15 00:19:24;;;;;;;14.80;9.90;;;;;;;4.78;100.00;97744.22;4974557;28;20255;-77
2020/12/15 00:21:52;;;;;;;15.73;10.03;;;;;;;4.75;100.00;97741.75;4974437;28;20695;-77
2020/12/15 00:24:18;;;;;;;15.13;10.30;;;;;;;4.72;100.00;97741.91;4974697;28;20257;-76
2020/12/15 00:26:44;;;;;;;13.97;10.00;;;;;;;4.68;100.00;97732.53;4974607;28;20215;-77
2020/12/15 00:29:12;;;;;;;15.33;10.73;;;;;;;4.64;100.00;97732.78;4974748;28;20254;-78
2020/12/15 00:31:38;;;;;;;16.53;10.77;;;;;;;4.64;100.00;97738.00;4973171;28;20589;-76
2020/12/15 00:34:04;;;;;;;13.40;10.07;;;;;;;4.66;100.00;97738.75;4974610;28;20242;-77
2020/12/15 00:36:31;;;;;;;15.00;10.43;;;;;;;4.69;100.00;97741.19;4974476;28;20216;-78
2020/12/15 00:38:57;;;;;;;16.73;10.67;;;;;;;4.71;100.00;97729.72;4974014;28;20235;-77
2020/12/15 00:41:23;;;;;;;17.07;10.30;;;;;;;4.82;100.00;97727.41;4974389;28;20235;-78
2020/12/15 00:43:50;;;;;;;14.10;9.57;;;;;;;4.86;100.00;97734.19;4974310;28;20207;-78
2020/12/15 00:46:17;;;;;;;13.07;8.73;;;;;;;4.89;100.00;97728.75;4974338;28;20589;-78
2020/12/15 00:48:43;;;;;;;13.57;9.40;;;;;;;4.92;100.00;97731.22;4974326;28;20245;-78
2020/12/15 00:51:14;;;;;;;15.93;9.33;;;;;;;4.95;100.00;97725.81;4973840;28;20570;-77
2020/12/15 00:53:40;;;;;;;12.03;9.20;;;;;;;5.09;100.00;97720.72;4974148;28;20267;-77
2020/12/15 00:56:06;;;;;;;12.77;9.33;;;;;;;5.10;100.00;97711.91;4974389;28;20216;-77
2020/12/15 00:58:34;;;;;;;13.77;9.03;;;;;;;5.19;100.00;97718.44;4972632;28;20239;-78
2020/12/15 01:01:01;;;;;;;12.37;8.70;;;;;;;5.13;100.00;97719.59;4974219;28;20222;-77
2020/12/15 01:03:27;;;;;;;11.63;8.77;;;;;;;5.14;100.00;97729.13;4973901;28;20212;-77
2020/12/15 01:05:53;;;;;;;12.67;8.63;;;;;;;5.12;100.00;97731.00;4974283;28;20218;-77
2020/12/15 01:08:19;;;;;;;13.00;8.17;;;;;;;5.05;100.00;97736.66;4973973;28;20231;-77
2020/12/15 01:10:45;;;;;;;13.70;8.77;;;;;;;5.10;100.00;97722.41;4973876;28;20310;-77
2020/12/15 01:13:11;;;;;;;10.60;8.43;;;;;;;5.11;100.00;97724.09;4974073;28;20250;-78
2020/12/15 01:15:37;;;;;;;11.37;8.57;;;;;;;5.10;100.00;97742.50;4973998;28;20684;-77
2020/12/15 01:18:04;;;;;;;11.03;7.93;;;;;;;5.15;100.00;97736.09;4973858;28;20255;-77
2020/12/15 01:20:30;;;;;;;10.93;7.87;;;;;;;5.18;100.00;97725.44;4973825;28;20218;-77
2020/12/15 01:22:56;;;;;;;9.50;7.67;;;;;;;5.23;100.00;97736.50;4972264;28;20246;-77
2020/12/15 01:25:22;;;;;;;10.40;7.50;;;;;;;5.30;100.00;97730.00;4974399;28;20243;-77
2020/12/15 01:27:48;;;;;;;10.73;7.97;;;;;;;5.34;100.00;97731.53;4973665;28;20651;-77
2020/12/15 01:30:14;;;;;;;8.73;6.70;;;;;;;5.45;100.00;97730.94;4973950;28;20242;-77
2020/12/15 01:32:40;;;;;;;10.70;7.47;;;;;;;5.51;100.00;97734.06;4973868;28;20303;-77
2020/12/15 01:35:07;;;;;;;10.67;7.47;;;;;;;5.49;100.00;97735.94;4974333;28;20325;-78
2020/12/15 01:37:32;;;;;;;11.90;7.37;;;;;;;5.45;100.00;97734.38;4973619;28;20219;-77
2020/12/15 01:39:58;;;;;;;9.37;7.27;;;;;;;5.44;100.00;97748.44;4973453;28;20231;-76
2020/12/15 01:42:24;;;;;;;9.73;7.00;;;;;;;5.42;100.00;97744.19;4973837;28;20213;-76
2020/12/15 01:44:51;;;;;;;12.50;7.47;;;;;;;5.42;100.00;97749.44;4973584;28;20306;-77
2020/12/15 01:47:18;;;;;;;9.77;7.30;;;;;;;5.48;100.00;97744.72;4973758;28;20216;-77
2020/12/15 01:49:44;;;;;;;10.10;7.47;;;;;;;5.44;100.00;97748.44;4972249;28;20220;-76
2020/12/15 01:52:13;;;;;;;9.33;7.33;;;;;;;5.53;100.00;97731.34;4973575;28;20209;-77
2020/12/15 01:54:39;;;;;;;10.73;7.90;;;;;;;5.56;100.00;97732.03;4973861;28;20600;-78
2020/12/15 01:57:06;;;;;;;12.17;8.23;;;;;;;5.53;100.00;97732.22;4973830;28;20208;-77
2020/12/15 01:59:32;;;;;;;11.23;8.03;;;;;;;5.44;100.00;97737.94;4973635;28;20248;-77
2020/12/15 02:01:58;;;;;;;10.93;7.30;;;;;;;5.47;100.00;97732.56;4973654;28;20216;-78
2020/12/15 02:04:24;;;;;;;10.67;7.70;;;;;;;5.39;100.00;97747.00;4976339;28;20250;-78
2020/12/15 02:06:52;;;;;;;12.27;8.27;;;;;;;5.34;100.00;97742.03;4976872;28;20218;-77
2020/12/15 02:09:19;;;;;;;11.77;8.13;;;;;;;5.31;100.00;97736.09;4977098;28;20230;-77
2020/12/15 02:11:47;;;;;;;9.93;7.83;;;;;;;5.31;100.00;97730.88;4976969;28;20222;-77
2020/12/15 02:14:13;;;;;;;11.13;7.93;;;;;;;5.33;100.00;97724.63;4976853;28;20209;-77
2020/12/15 02:16:41;;;;;;;9.80;7.33;;;;;;;5.33;100.00;97729.00;4974958;28;20240;-78
2020/12/15 02:19:08;;;;;;;8.60;6.97;;;;;;;5.31;100.00;97736.94;4976471;28;20238;-77
2020/12/15 02:21:50;;;;;;;9.13;7.00;;;;;;;5.28;100.00;97742.34;4976650;28;20218;-78
2020/12/15 02:24:16;;;;;;;10.60;7.73;;;;;;;5.31;100.00;97747.41;4976497;28;20211;-77
2020/12/15 02:26:42;;;;;;;10.20;7.30;;;;;;;5.34;100.00;97747.25;4976758;28;20219;-77
2020/12/15 02:29:08;;;;;;;10.77;7.37;;;;;;;5.36;100.00;97745.41;4976680;28;20211;-77
2020/12/15 02:31:34;;;;;;;9.87;7.43;;;;;;;5.38;100.00;97735.66;4976710;28;20212;-77
2020/12/15 02:34:01;;;;;;;11.60;7.80;;;;;;;5.39;100.00;97740.00;4976552;28;20277;-77
2020/12/15 02:36:28;;;;;;;10.60;7.83;;;;;;;5.42;100.00;97731.97;4976543;28;20599;-77
2020/12/15 02:38:55;;;;;;;12.33;8.33;;;;;;;5.46;100.00;97740.50;4976544;28;20240;-77
2020/12/15 02:41:20;;;;;;;11.70;8.80;;;;;;;5.49;100.00;97725.44;4974929;28;20218;-77
2020/12/15 02:43:47;;;;;;;10.67;8.13;;;;;;;5.50;100.00;97713.19;4976419;28;20216;-76
2020/12/15 02:46:13;;;;;;;13.07;9.07;;;;;;;5.52;100.00;97709.56;4976101;28;20221;-78
2020/12/15 02:48:39;;;;;;;10.37;8.23;;;;;;;5.52;100.00;97714.81;4976231;28;20311;-77
2020/12/15 02:51:05;;;;;;;11.87;8.90;;;;;;;5.55;100.00;97714.63;4976211;28;20212;-78
2020/12/15 02:53:31;;;;;;;11.27;7.90;;;;;;;5.59;100.00;97718.78;4976274;28;20700;-77
2020/12/15 02:55:58;;;;;;;13.47;8.60;;;;;;;5.58;100.00;97714.47;4976354;28;20211;-77
2020/12/15 02:58:24;;;;;;;13.97;9.50;;;;;;;5.61;100.00;97709.03;4976102;28;20227;-77
2020/12/15 03:00:50;;;;;;;12.93;9.70;;;;;;;5.60;100.00;97694.25;4976307;28;20212;-77
2020/12/15 03:03:16;;;;;;;11.20;8.03;;;;;;;5.54;100.00;97702.44;4976190;28;20728;-78
2020/12/15 03:05:42;;;;;;;9.10;6.73;;;;;;;5.49;100.00;97720.19;4975736;28;20246;-77
2020/12/15 03:08:08;;;;;;;9.40;6.80;;;;;;;5.44;100.00;97711.75;4974445;28;20212;-79
2020/12/15 03:10:34;;;;;;;7.77;5.87;;;;;;;5.46;100.00;97714.28;4976278;28;20746;-78
2020/12/15 03:13:01;;;;;;;11.13;6.83;;;;;;;5.42;100.00;97697.88;4975749;28;20251;-77
2020/12/15 03:15:26;;;;;;;9.20;6.83;;;;;;;5.47;100.00;97685.38;4974992;28;20211;-77
2020/12/15 03:17:52;;;;;;;9.80;6.03;;;;;;;5.52;98.69;97674.63;4975805;28;20243;-77
2020/12/15 03:20:18;;;;;;;9.73;6.70;;;;;;;5.47;98.80;97661.78;4975860;28;20274;-78
2020/12/15 03:22:44;;;;;;;9.00;6.40;;;;;;;5.46;99.84;97661.88;4975709;28;20248;-78
2020/12/15 03:25:10;;;;;;;7.20;5.40;;;;;;;5.44;100.00;97722.22;4975299;28;20243;-78
2020/12/15 03:27:36;;;;;;;7.23;5.60;;;;;;;5.43;100.00;97751.16;4975578;28;20204;-77
2020/12/15 03:30:04;;;;;;;6.53;5.67;;;;;;;5.46;100.00;97722.16;4975217;28;20314;-77
2020/12/15 03:32:30;;;;;;;8.17;6.17;;;;;;;5.33;100.00;97693.19;4975264;28;20222;-77
2020/12/15 03:34:56;;;;;;;6.47;5.37;;;;;;;5.29;100.00;97709.13;4974278;28;20239;-77
2020/12/15 03:37:22;;;;;;;8.80;5.40;;;;;;;5.40;100.00;97725.09;4975404;28;20552;-77
2020/12/15 03:39:48;;;;;;;7.13;5.30;;;;;;;5.26;100.00;97699.66;4975371;28;20237;-77
2020/12/15 03:42:14;;;;;;;7.67;5.93;;;;;;;5.19;100.00;97679.97;4975169;28;20255;-77
2020/12/15 03:44:41;;;;;;;6.53;5.70;;;;;;;5.25;100.00;97656.06;4975334;28;20310;-77
2020/12/15 03:47:07;;;;;;;6.87;5.43;;;;;;;5.17;100.00;97671.38;4975105;28;20211;-77
2020/12/15 03:49:33;;;;;;;8.07;5.37;;;;;;;5.15;100.00;97669.75;4975340;28;20215;-77
2020/12/15 03:51:59;;;;;;;7.10;5.73;;;;;;;5.15;100.00;97652.28;4975306;28;20210;-77
2020/12/15 03:54:25;;;;;;;8.10;5.57;;;;;;;5.16;100.00;97650.47;4975414;28;20770;-77
2020/12/15 03:56:51;;;;;;;7.70;5.37;;;;;;;5.12;100.00;97655.03;4974922;28;20314;-77
2020/12/15 03:59:17;;;;;;;7.70;5.23;;;;;;;5.10;100.00;97653.44;4973394;28;20325;-77
2020/12/15 04:01:43;;;;;;;7.10;5.50;;;;;;;5.08;100.00;97645.66;4974934;28;20570;-77
2020/12/15 04:04:10;;;;;;;7.87;5.37;;;;;;;5.09;100.00;97684.03;4974783;28;20311;-77
2020/12/15 04:06:36;;;;;;;6.13;5.03;;;;;;;5.13;100.00;97706.50;4974917;28;20216;-78
2020/12/15 04:09:02;;;;;;;6.80;5.20;;;;;;;5.09;100.00;97710.22;4974636;28;20211;-77
2020/12/15 04:11:28;;;;;;;6.30;5.47;;;;;;;5.21;100.00;97724.44;4974633;28;20216;-77
2020/12/15 04:13:54;;;;;;;7.97;5.33;;;;;;;5.20;100.00;97734.03;4974866;28;20315;-77
2020/12/15 04:16:20;;;;;;;7.77;6.03;;;;;;;5.21;100.00;97735.75;4974807;28;20647;-77
2020/12/15 04:18:46;;;;;;;7.80;6.07;;;;;;;5.19;100.00;97721.88;4974513;28;20232;-76
2020/12/15 04:21:13;;;;;;;7.83;6.00;;;;;;;5.17;100.00;97717.66;4974523;28;20690;-76
2020/12/15 04:23:39;;;;;;;6.37;5.33;;;;;;;5.17;100.00;97709.78;4974773;28;20278;-76
2020/12/15 04:26:05;;;;;;;7.50;5.90;;;;;;;5.15;100.00;97709.91;4972799;28;20244;-77
2020/12/15 04:28:31;;;;;;;7.17;5.67;;;;;;;5.18;100.00;97719.34;4974540;28;20206;-77
2020/12/15 04:30:57;;;;;;;9.57;7.50;;;;;;;5.16;100.00;97706.34;4974563;28;20218;-76
2020/12/15 04:33:23;;;;;;;10.27;7.47;;;;;;;5.20;100.00;97712.25;4974459;28;20252;-77
2020/12/15 04:35:49;;;;;;;11.50;8.70;;;;;;;5.27;100.00;97703.13;4974507;28;20216;-77
2020/12/15 04:38:16;;;;;;;11.03;7.80;;;;;;;5.27;100.00;97692.66;4974154;28;20564;-77
2020/12/15 04:40:42;;;;;;;11.00;8.07;;;;;;;5.33;100.00;97708.91;4974439;28;20238;-77
2020/12/15 04:43:10;;;;;;;11.23;8.37;;;;;;;5.26;100.00;97702.28;4974319;28;20239;-77
2020/12/15 04:45:37;;;;;;;11.50;8.77;;;;;;;5.23;100.00;97705.06;4974395;28;20313;-77
2020/12/15 04:48:07;;;;;;;12.43;9.40;;;;;;;5.14;100.00;97716.03;4974400;28;20207;-77
2020/12/15 04:50:36;;;;;;;12.23;9.57;;;;;;;5.19;100.00;97729.75;4973416;28;20219;-77
2020/12/15 04:53:10;;;;;;;12.67;9.13;;;;;;;5.24;100.00;97735.56;4973788;28;20215;-76
2020/12/15 04:55:38;;;;;;;12.43;9.47;;;;;;;5.26;100.00;97728.47;4974278;28;20258;-76
2020/12/15 04:58:05;;;;;;;10.87;8.43;;;;;;;5.32;100.00;97722.91;4974075;28;20587;-77
2020/12/15 05:00:32;;;;;;;10.80;8.07;;;;;;;5.31;100.00;97731.69;4974179;28;20645;-76
2020/12/15 05:02:59;;;;;;;9.47;7.63;;;;;;;5.38;100.00;97732.22;4974078;28;20212;-76
2020/12/15 05:05:25;;;;;;;11.03;8.50;;;;;;;5.42;100.00;97739.81;4974203;28;20218;-77
2020/12/15 05:07:52;;;;;;;10.13;8.10;;;;;;;5.45;100.00;97742.25;4974214;28;20211;-78
2020/12/15 05:10:20;;;;;;;12.47;8.37;;;;;;;5.47;100.00;97735.19;4974183;28;20211;-77
2020/12/15 05:12:48;;;;;;;11.50;8.20;;;;;;;5.51;100.00;97726.19;4974116;28;20211;-78
2020/12/15 05:15:15;;;;;;;10.90;8.27;;;;;;;5.51;100.00;97728.81;4974091;28;20577;-77
2020/12/15 05:17:42;;;;;;;11.40;8.07;;;;;;;5.50;100.00;97715.81;4972506;28;20212;-77
2020/12/15 05:20:09;;;;;;;10.80;7.53;;;;;;;5.67;100.00;97713.09;4977092;28;20230;-76
2020/12/15 05:22:39;;;;;;;10.07;7.57;;;;;;;5.65;100.00;97710.56;4979396;28;20211;-76
2020/12/15 05:25:06;;;;;;;10.27;7.47;;;;;;;5.56;100.00;97712.84;4979455;28;20257;-77
2020/12/15 05:27:39;;;;;;;7.97;6.87;;;;;;;5.54;100.00;97715.56;4979334;28;20223;-78
2020/12/15 05:30:08;;;;;;;9.53;7.40;;;;;;;5.62;100.00;97715.97;4978031;28;20213;-77
2020/12/15 05:32:36;;;;;;;9.40;7.43;;;;;;;5.76;100.00;97697.69;4974135;28;20617;-77
2020/12/15 05:35:07;;;;;;;8.43;6.83;;;;;;;5.78;100.00;97701.06;4974038;28;20239;-77
2020/12/15 05:37:33;;;;;;;15.07;7.87;;;;;;;5.69;100.00;97703.38;4974128;28;20228;-78
2020/12/15 05:40:00;;;;;;;11.10;7.17;;;;;;;5.68;100.00;97705.13;4977774;28;20236;-78
2020/12/15 05:42:28;;;;;;;8.77;6.33;;;;;;;5.64;100.00;97708.88;4977373;28;20219;-77
2020/12/15 05:44:56;;;;;;;7.40;5.97;;;;;;;5.56;100.00;97705.81;4976606;28;20221;-77
2020/12/15 05:47:23;;;;;;;8.13;6.13;;;;;;;5.48;100.00;97705.41;4977398;28;20215;-77
2020/12/15 05:49:51;;;;;;;7.73;6.17;;;;;;;5.48;100.00;97702.78;4977600;28;20585;-77
2020/12/15 05:52:27;;;;;;;7.67;5.90;;;;;;;5.57;100.00;97691.78;4977452;28;20217;-77
2020/12/15 05:55:07;;;;;;;6.87;5.73;;;;;;;5.58;100.00;97703.97;4977573;28;20219;-77
2020/12/15 05:57:33;;;;;;;8.47;6.00;;;;;;;5.58;100.00;97708.38;4977115;28;20686;-77
2020/12/15 06:00:10;;;;;;;8.57;6.40;;;;;;;5.59;100.00;97708.28;4977314;28;20248;-77
2020/12/15 06:02:37;;;;;;;7.40;5.80;;;;;;;5.63;100.00;97725.50;4977357;28;20214;-77
2020/12/15 06:05:04;;;;;;;8.13;6.07;;;;;;;5.66;100.00;97727.97;4977375;28;20214;-77
2020/12/15 06:07:32;;;;;;;8.27;6.30;;;;;;;5.73;100.00;97720.63;4977346;28;20216;-77
2020/12/15 06:09:58;;;;;;;8.07;6.03;;;;;;;5.84;100.00;97718.25;4975587;28;20207;-77
2020/12/15 06:12:24;;;;;;;7.37;5.90;;;;;;;5.90;100.00;97718.75;4977351;28;20269;-77
2020/12/15 06:14:50;;;;;;;7.87;6.20;;;;;;;5.96;100.00;97720.16;4976963;28;20700;-77
2020/12/15 06:17:18;;;;;;;7.70;6.23;;;;;;;6.01;100.00;97728.63;4976997;28;20259;-78
2020/12/15 06:19:45;;;;;;;7.57;6.03;;;;;;;6.02;100.00;97718.06;4976883;28;20242;-77
2020/12/15 06:22:11;;;;;;;8.30;6.47;;;;;;;6.04;100.00;97724.03;4977023;28;20207;-77
2020/12/15 06:24:40;;;;;;;8.83;6.17;;;;;;;6.06;100.00;97726.59;4976768;28;20223;-77
2020/12/15 06:27:08;;;;;;;7.10;5.63;;;;;;;6.11;100.00;97730.63;4976786;28;20582;-77
2020/12/15 06:29:36;;;;;;;6.30;5.00;;;;;;;6.15;100.00;97732.16;4976864;28;20234;-77
2020/12/15 06:32:04;;;;;;;6.80;5.10;;;;;;;6.17;100.00;97734.69;4976960;28;20209;-77
2020/12/15 06:34:31;;;;;;;7.57;5.27;;;;;;;6.08;100.00;97730.81;4976289;28;20235;-76
2020/12/15 06:36:59;;;;;;;5.13;4.57;;;;;;;6.00;100.00;97733.03;4975793;28;20213;-77
2020/12/15 06:39:27;;;;;;;5.93;4.43;;;;;;;5.99;100.00;97736.56;4977289;28;20236;-76
2020/12/15 06:41:58;;;;;;;6.20;5.20;;;;;;;6.00;100.00;97732.19;4977127;28;20682;-76
2020/12/15 06:44:32;;;;;;;7.00;4.97;;;;;;;6.06;100.00;97735.31;4977270;28;20213;-75
2020/12/15 06:46:59;;;;;;;5.60;4.43;;;;;;;6.01;100.00;97733.88;4977062;28;20270;-75
2020/12/15 06:49:33;;;;;;;6.33;4.70;;;;;;;6.04;100.00;97733.72;4976921;28;20259;-75
2020/12/15 06:52:03;;;;;;;7.10;5.03;;;;;;;6.07;100.00;97731.75;4976406;28;20211;-76
2020/12/15 06:54:30;;;;;;;6.63;5.07;;;;;;;6.06;100.00;97727.44;4976243;28;20400;-76
2020/12/15 06:57:04;;;;;;;6.57;5.50;;;;;;;6.03;100.00;97722.34;4976270;28;20215;-76
2020/12/15 06:59:35;;;;;;;8.77;5.80;;;;;;;6.07;100.00;97728.28;4976159;28;20232;-75
2020/12/15 07:02:12;;;;;;;8.67;6.37;;;;;;;6.18;97.65;97731.94;4974180;28;20217;-75
2020/12/15 07:04:41;;;;;;;9.93;6.10;;;;;;;6.20;96.72;97730.09;4976109;28;20291;-76
2020/12/15 07:07:08;;;;;;;9.47;7.10;;;;;;;6.15;96.50;97726.91;4976006;28;20220;-75
2020/12/15 07:09:34;;;;;;;11.80;8.20;;;;;;;6.06;96.73;97726.59;4976098;28;20213;-76
2020/12/15 07:12:02;;;;;;;9.40;6.50;;;;;;;5.93;98.94;97731.69;4976030;28;20226;-76
2020/12/15 07:14:28;;;;;;;12.53;6.87;;;;;;;5.92;98.99;97739.66;4975745;28;20212;-76
2020/12/15 07:16:55;;;;;;;9.33;6.83;;;;;;;5.88;99.92;97739.00;4975996;28;20209;-76
2020/12/15 07:19:23;;;;;;;8.00;5.77;;;;;;;5.89;100.00;97734.56;4975909;28;20270;-76
2020/12/15 07:21:49;;;;;;;8.17;6.33;;;;;;;5.92;99.36;97734.41;4975898;28;20209;-76
2020/12/15 07:24:16;;;;;;;9.07;6.50;;;;;;;6.02;97.80;97733.78;4975473;28;20248;-76
2020/12/15 07:26:43;;;;;;;8.73;6.73;;;;;;;6.01;98.25;97749.59;4974062;28;20212;-76
2020/12/15 07:29:09;;;;;;;7.97;5.90;;;;;;;6.05;98.96;97751.97;4975117;28;20224;-76
2020/12/15 07:31:35;;;;;;;7.70;6.03;;;;;;;6.11;99.11;97753.41;4975659;28;20227;-76
2020/12/15 07:34:07;;;;;;;9.60;6.03;;;;;;;6.14;100.00;97767.19;4975224;28;20788;-77
2020/12/15 07:36:36;;;;;;;9.07;6.43;;;;;;;6.29;98.60;97762.84;4975551;28;20291;-77
2020/12/15 07:39:04;;;;;;;9.27;6.00;;;;;;;6.28;98.17;97759.38;4975394;28;20243;-76
2020/12/15 07:41:36;;;;;;;7.63;6.23;;;;;;;6.25;99.68;97759.56;4975301;28;20212;-75
2020/12/15 07:44:03;;;;;;;10.57;6.70;;;;;;;6.24;99.02;97757.00;4975437;28;20289;-75
2020/12/15 07:46:29;;;;;;;7.97;5.77;;;;;;;6.23;97.69;97753.53;4975533;28;20263;-75
2020/12/15 07:48:56;;;;;;;8.60;6.20;;;;;;;6.26;96.57;97753.38;4975522;28;20223;-75
2020/12/15 07:51:22;;;;;;;7.67;5.70;;;;;;;6.29;97.19;97761.03;4975379;28;20213;-75
2020/12/15 07:53:52;;;;;;;8.83;6.70;;;;;;;6.25;95.18;97759.56;4973397;28;20223;-75
2020/12/15 07:56:19;;;;;;;8.87;6.50;;;;;;;6.20;95.94;97772.09;4975083;28;20210;-75
2020/12/15 07:58:51;;;;;;;8.53;6.03;;;;;;;6.13;97.54;97773.38;4975328;28;20212;-75
2020/12/15 08:01:24;;;;;;;7.87;6.13;;;;;;;6.17;98.73;97774.03;4974726;28;20235;-76
2020/12/15 08:04:03;;;;;;;7.50;5.73;;;;;;;6.14;99.91;97768.97;4975084;28;20267;-75
2020/12/15 08:06:30;;;;;;;9.27;7.67;;;;;;;6.24;98.33;97768.34;4975062;28;20216;-74
2020/12/15 08:08:58;;;;;;;10.80;6.87;;;;;;;6.28;98.25;97767.22;4975002;28;20283;-73
2020/12/15 08:11:24;;;;;;;8.70;6.30;;;;;;;6.27;99.40;97778.66;4974572;28;20673;-73
2020/12/15 08:13:51;;;;;;;9.90;7.27;;;;;;;6.30;100.00;97781.09;4974623;28;20224;-75
2020/12/15 08:16:18;;;;;;;9.87;6.47;;;;;;;6.34;99.57;97774.75;4974903;28;20213;-75
2020/12/15 08:18:45;;;;;;;9.83;7.07;;;;;;;6.38;99.69;97776.28;4973359;28;20205;-75
2020/12/15 08:21:14;;;;;;;8.90;6.47;;;;;;;6.44;99.21;97785.56;4974343;28;20675;-75
2020/12/15 08:23:47;;;;;;;8.27;6.43;;;;;;;6.47;98.97;97778.34;4972455;28;20233;-74
2020/12/15 08:26:15;;;;;;;8.57;6.73;;;;;;;6.52;98.24;97784.19;4971938;28;20632;-74
2020/12/15 08:28:41;;;;;;;9.97;7.03;;;;;;;6.57;98.07;97784.75;4972840;28;20208;-74
2020/12/15 08:31:10;;;;;;;9.47;6.67;;;;;;;6.60;96.74;97787.19;4972632;28;20310;-74
2020/12/15 08:33:36;;;;;;;10.10;7.03;;;;;;;6.64;95.69;97793.97;4970513;28;20208;-73
2020/12/15 08:36:02;;;;;;;9.83;6.93;;;;;;;6.66;96.06;97791.25;4971559;28;20217;-72
2020/12/15 08:38:29;;;;;;;8.00;6.43;;;;;;;6.74;96.11;97773.25;4972954;28;20560;-74
2020/12/15 08:40:56;;;;;;;9.13;6.60;;;;;;;6.78;96.19;97796.59;4972075;28;20236;-73
2020/12/15 08:43:23;;;;;;;8.10;6.07;;;;;;;6.84;95.52;97801.50;4972585;28;20216;-73
2020/12/15 08:45:49;;;;;;;9.67;6.37;;;;;;;6.91;94.35;97797.56;4971164;28;20221;-74
2020/12/15 08:48:17;;;;;;;8.97;6.40;;;;;;;6.88;94.41;97805.66;4971858;28;20217;-74
2020/12/15 08:50:44;;;;;;;9.73;6.70;;;;;;;6.85;94.14;97805.81;4972669;28;20224;-74
2020/12/15 08:53:11;;;;;;;9.73;7.30;;;;;;;6.87;92.81;97796.09;4972511;28;20218;-73
2020/12/15 08:55:38;;;;;;;10.27;6.83;;;;;;;6.81;93.59;97800.84;4971605;28;20673;-74
2020/12/15 08:58:05;;;;;;;7.37;6.40;;;;;;;6.76;95.44;97798.50;4972904;28;20257;-74
2020/12/15 09:00:34;;;;;;;10.30;6.73;;;;;;;6.81;95.91;97799.06;4972508;28;20237;-74
2020/12/15 09:03:05;;;;;;;8.70;5.93;;;;;;;6.83;93.31;97799.81;4971455;28;20249;-72
2020/12/15 09:05:32;;;;;;;7.67;5.77;;;;;;;6.70;95.95;97804.09;4972324;28;20217;-74
2020/12/15 09:08:01;;;;;;;9.33;6.30;;;;;;;6.69;97.05;97818.19;4972471;28;20361;-73
2020/12/15 09:10:29;;;;;;;7.70;6.27;;;;;;;6.70;96.91;97817.25;4971423;28;20219;-73
2020/12/15 09:12:55;;;;;;;6.77;5.40;;;;;;;6.76;97.24;97824.75;4971103;28;20217;-74
2020/12/15 09:15:21;;;;;;;6.63;5.33;;;;;;;6.77;97.62;97815.94;4976175;28;20267;-75
2020/12/15 09:17:47;;;;;;;7.47;5.37;;;;;;;6.85;94.96;97821.56;4975546;28;20247;-73
2020/12/15 09:20:23;;;;;;;6.73;4.83;;;;;;;6.90;95.34;97827.41;4976520;28;20244;-73
2020/12/15 09:22:50;;;;;;;8.67;5.67;;;;;;;6.96;95.05;97837.53;4976294;28;20221;-73
2020/12/15 09:25:17;;;;;;;7.30;5.40;;;;;;;7.04;93.82;97840.59;4974962;28;20216;-74
2020/12/15 09:27:46;;;;;;;7.70;5.20;;;;;;;7.12;93.58;97838.34;4975721;28;20674;-73
2020/12/15 09:30:14;;;;;;;6.97;5.50;;;;;;;7.19;91.74;97834.41;4976012;28;20212;-72
2020/12/15 09:32:42;;;;;;;7.63;5.43;;;;;;;7.24;89.77;97838.41;4975105;28;20308;-75
2020/12/15 09:35:08;;;;;;;6.57;5.60;;;;;;;7.31;89.12;97828.41;4974152;28;20241;-73
2020/12/15 09:37:35;;;;;;;8.07;5.73;;;;;;;7.23;88.87;97830.66;4973655;28;20217;-75
2020/12/15 09:40:04;;;;;;;8.43;5.63;;;;;;;7.28;88.76;97823.34;4975219;28;20331;-73
2020/12/15 09:42:31;;;;;;;8.97;5.90;;;;;;;7.31;89.18;97833.66;4975964;28;20226;-72
2020/12/15 09:44:57;;;;;;;8.23;5.80;;;;;;;7.31;89.32;97828.41;4975443;28;20215;-72
2020/12/15 09:47:23;;;;;;;8.83;6.13;;;;;;;7.34;87.95;97818.53;4975077;28;20686;-75
2020/12/15 09:49:49;;;;;;;9.20;5.80;;;;;;;7.42;88.77;97825.97;4974846;28;20218;-72
2020/12/15 09:52:15;;;;;;;7.53;5.13;;;;;;;7.39;89.61;97813.00;4975171;28;20260;-72
2020/12/15 09:54:41;;;;;;;9.17;4.80;;;;;;;7.47;92.92;97813.38;4974834;28;20603;-73
2020/12/15 09:57:08;;;;;;;8.03;5.63;;;;;;;7.38;94.46;97813.94;4975051;28;20697;-73
2020/12/15 09:59:34;;;;;;;7.90;5.27;;;;;;;7.49;93.40;97822.00;4975632;28;20248;-74
2020/12/15 10:02:00;;;;;;;7.80;5.57;;;;;;;7.48;97.63;97820.31;4974306;28;20220;-74
2020/12/15 10:04:26;;;;;;;7.60;5.43;;;;;;;7.44;97.71;97813.56;4972105;28;20324;-73
2020/12/15 10:06:52;;;;;;;7.87;5.50;;;;;;;7.56;98.46;97818.06;4975417;28;20213;-73
2020/12/15 10:09:18;;;;;;;7.33;5.63;;;;;;;7.49;98.94;97820.25;4974520;28;20315;-73
2020/12/15 10:11:45;;;;;;;6.97;5.17;;;;;;;7.47;98.28;97821.28;4975252;28;20214;-72
2020/12/15 10:14:11;;;;;;;7.40;5.10;;;;;;;7.50;98.55;97814.03;4975262;28;20218;-73
2020/12/15 10:16:37;;;;;;;6.67;5.13;;;;;;;7.55;97.14;97813.75;4974735;28;20304;-74
2020/12/15 10:19:03;;;;;;;8.60;6.20;;;;;;;7.44;91.49;97813.56;4975263;28;20228;-74
2020/12/15 10:21:30;;;;;;;8.50;5.60;;;;;;;7.49;91.33;97811.50;4975121;28;20217;-74
2020/12/15 10:23:56;;;;;;;7.90;6.00;;;;;;;7.58;90.99;97811.75;4973629;28;20227;-74
2020/12/15 10:26:22;;;;;;;8.33;5.67;;;;;;;7.61;90.75;97808.09;4974882;28;20689;-73
2020/12/15 10:28:49;;;;;;;10.57;6.50;;;;;;;7.65;90.13;97807.81;4974833;28;20216;-74
2020/12/15 10:31:16;;;;;;;12.80;6.83;;;;;;;7.59;89.82;97817.88;4972460;28;20703;-74
2020/12/15 10:33:42;;;;;;;8.73;6.43;;;;;;;7.79;86.28;97810.41;4974724;28;20242;-74
2020/12/15 10:36:11;;;;;;;7.30;6.10;;;;;;;7.83;86.18;97808.44;4975030;28;20221;-72
2020/12/15 10:38:38;;;;;;;8.87;6.33;;;;;;;7.88;84.75;97811.59;4973968;28;20618;-75
2020/12/15 10:41:04;;;;;;;8.57;6.30;;;;;;;7.84;85.71;97813.59;4975139;28;20245;-74
2020/12/15 10:43:30;;;;;;;10.70;6.97;;;;;;;7.99;86.52;97801.25;4974365;28;20217;-73
2020/12/15 10:45:56;;;;;;;10.57;7.07;;;;;;;7.84;87.78;97815.41;4974072;28;20214;-72
2020/12/15 10:48:23;;;;;;;11.20;6.70;;;;;;;7.85;88.43;97809.19;4974579;28;20208;-72
2020/12/15 10:50:49;;;;;;;11.03;6.60;;;;;;;7.92;88.30;97810.47;4974836;28;20222;-74
2020/12/15 10:53:15;;;;;;;10.17;6.20;;;;;;;8.00;88.40;97805.56;4973313;28;20305;-73
2020/12/15 10:55:43;;;;;;;11.20;7.33;;;;;;;8.04;88.41;97812.34;4974602;28;20220;-73
2020/12/15 10:58:09;;;;;;;10.40;7.40;;;;;;;8.12;88.26;97812.69;4972872;28;20217;-73
2020/12/15 11:00:35;;;;;;;9.97;6.57;;;;;;;8.18;88.33;97817.53;4973460;28;20296;-73
2020/12/15 11:03:01;;;;;;;11.17;7.57;;;;;;;8.26;86.92;97804.78;4976050;28;20239;-72
2020/12/15 11:05:28;;;;;;;12.10;8.00;;;;;;;8.24;87.57;97811.91;4976125;28;20249;-73
2020/12/15 11:07:54;;;;;;;8.50;6.63;;;;;;;8.24;88.72;97811.91;4976036;28;20215;-73
2020/12/15 11:10:20;;;;;;;10.93;7.20;;;;;;;8.22;88.86;97811.19;4976018;28;20656;-74
2020/12/15 11:12:46;;;;;;;10.63;7.20;;;;;;;8.19;88.79;97808.69;4975962;28;20233;-74
2020/12/15 11:15:12;;;;;;;11.93;7.30;;;;;;;8.13;89.30;97809.09;4975950;28;20241;-72
2020/12/15 11:17:38;;;;;;;11.37;7.47;;;;;;;8.07;89.85;97804.22;4975900;28;20744;-72
2020/12/15 11:20:05;;;;;;;11.57;7.33;;;;;;;7.93;90.82;97809.53;4975403;28;20274;-73
2020/12/15 11:22:32;;;;;;;11.17;7.83;;;;;;;7.80;91.35;97812.13;4973786;28;20218;-73
2020/12/15 11:24:58;;;;;;;13.60;8.37;;;;;;;7.73;92.80;97810.78;4975870;28;20260;-73
2020/12/15 11:27:24;;;;;;;11.20;7.63;;;;;;;7.71;94.51;97801.34;4975777;28;20210;-73
2020/12/15 11:29:50;;;;;;;11.77;7.43;;;;;;;7.69;94.86;97797.94;4975658;28;20222;-75
2020/12/15 11:32:16;;;;;;;9.17;7.50;;;;;;;7.65;95.38;97802.53;4975247;28;20217;-73
2020/12/15 11:34:42;;;;;;;10.37;7.80;;;;;;;7.64;96.96;97798.22;4975834;28;20249;-73